Time;durP1;ratioP1;P1;durP2;ratioP2;P2;SDS_P1;SDS_P2;PMS_P1;PMS_P2;Temp;Humidity;BMP_temperature;BMP_pressure;BME280_temperature;BME280_humidity;BME280_pressure;Samples;Min_cycle;Max_cycle;Signal;HPM_P1;HPM_P2
2021/09/24 00:00:19;;;;;;;7.63;6.13;;;;;;;12.17;49.75;99916.41;5014198;28;20068;-72
2021/09/24 00:02:45;;;;;;;8.68;5.68;;;;;;;12.36;49.38;99924.41;5012409;28;20020;-72
2021/09/24 00:05:10;;;;;;;11.85;6.30;;;;;;;12.38;49.52;99924.09;5012421;28;20563;-72
2021/09/24 00:07:36;;;;;;;8.35;6.38;;;;;;;12.09;50.30;99922.88;5012393;28;20096;-72
2021/09/24 00:10:04;;;;;;;14.00;5.60;;;;;;;12.05;50.61;99924.69;5014221;28;20029;-72
2021/09/24 00:12:29;;;;;;;7.65;6.70;;;;;;;12.03;50.56;99929.81;5011160;28;20057;-72
2021/09/24 00:14:55;;;;;;;9.88;6.60;;;;;;;12.02;50.59;99926.19;5015921;28;20061;-72
2021/09/24 00:17:20;;;;;;;7.15;5.50;;;;;;;12.07;50.48;99922.41;5017850;28;20081;-72
2021/09/24 00:19:45;;;;;;;9.55;6.30;;;;;;;12.04;50.42;99925.84;5011037;28;20024;-72
2021/09/24 00:22:11;;;;;;;10.60;7.20;;;;;;;11.92;51.01;99921.72;5012200;28;20791;-72
2021/09/24 00:24:37;;;;;;;11.50;6.43;;;;;;;12.04;50.51;99917.44;5010916;28;20077;-72
2021/09/24 00:27:02;;;;;;;9.45;6.38;;;;;;;11.90;50.53;99920.44;5011444;28;20042;-72
2021/09/24 00:29:28;;;;;;;8.90;5.90;;;;;;;12.09;50.87;99917.28;5009866;28;20469;-72
2021/09/24 00:31:54;;;;;;;7.70;6.05;;;;;;;11.94;50.56;99913.00;5019020;28;20113;-72
2021/09/24 00:34:20;;;;;;;9.15;5.70;;;;;;;11.86;50.84;99909.06;5010427;28;20034;-72
2021/09/24 00:36:45;;;;;;;9.25;5.97;;;;;;;11.78;51.25;99915.47;5010644;28;20393;-72
2021/09/24 00:39:11;;;;;;;11.85;6.28;;;;;;;11.65;52.10;99912.53;5010602;28;20032;-72
2021/09/24 00:41:36;;;;;;;10.07;7.03;;;;;;;11.76;51.44;99910.19;5011214;28;20508;-72
2021/09/24 00:44:03;;;;;;;8.75;6.55;;;;;;;11.87;51.38;99907.06;5014584;28;20025;-72
2021/09/24 00:46:28;;;;;;;8.23;6.90;;;;;;;11.75;51.76;99904.94;5013542;28;20032;-72
2021/09/24 00:48:54;;;;;;;9.25;6.85;;;;;;;11.48;53.46;99901.38;4997065;28;20026;-72
2021/09/24 00:51:19;;;;;;;10.63;6.55;;;;;;;11.58;52.80;99895.41;5006132;28;20404;-72
2021/09/24 00:53:45;;;;;;;9.55;7.10;;;;;;;11.61;52.99;99882.72;5008927;28;20069;-72
2021/09/24 00:56:12;;;;;;;9.02;7.32;;;;;;;11.63;53.05;99889.63;5009632;28;20026;-72
2021/09/24 00:58:37;;;;;;;7.22;5.95;;;;;;;11.81;52.41;99883.97;5011689;28;20068;-72
2021/09/24 01:01:06;;;;;;;10.43;6.47;;;;;;;11.54;53.24;99877.63;5020138;28;20060;-72
2021/09/24 01:03:31;;;;;;;10.30;6.60;;;;;;;11.58;53.08;99883.38;5006867;28;20022;-72
2021/09/24 01:05:57;;;;;;;7.25;5.90;;;;;;;11.40;52.74;99872.19;5017950;28;20444;-72
2021/09/24 01:08:22;;;;;;;11.15;7.00;;;;;;;11.34;53.04;99868.75;5010762;28;20026;-72
2021/09/24 01:10:48;;;;;;;9.60;6.45;;;;;;;11.49;52.93;99872.19;5011711;28;20021;-72
2021/09/24 01:13:13;;;;;;;13.00;6.53;;;;;;;11.59;52.39;99862.63;5010680;28;20030;-72
2021/09/24 01:15:39;;;;;;;12.98;7.35;;;;;;;11.28;52.61;99864.47;5011639;28;20026;-72
2021/09/24 01:18:05;;;;;;;8.88;6.30;;;;;;;11.04;53.78;99860.19;5010061;28;20096;-72
2021/09/24 01:20:31;;;;;;;10.32;7.32;;;;;;;11.01;54.27;99860.00;5012514;28;20026;-72
2021/09/24 01:22:57;;;;;;;10.18;6.22;;;;;;;11.01;53.23;99860.84;5012115;28;20080;-72
2021/09/24 01:25:23;;;;;;;10.30;7.15;;;;;;;10.85;53.80;99863.28;5004380;28;20038;-72
2021/09/24 01:27:51;;;;;;;8.60;6.60;;;;;;;11.03;53.68;99858.53;5011351;28;20053;-72
2021/09/24 01:30:17;;;;;;;11.13;6.57;;;;;;;11.00;53.76;99853.59;5011187;28;20033;-72
2021/09/24 01:32:47;;;;;;;9.68;6.78;;;;;;;11.01;53.69;99851.59;5011778;28;20018;-72
2021/09/24 01:35:13;;;;;;;10.53;6.67;;;;;;;11.05;52.89;99861.81;5010661;28;20045;-72
2021/09/24 01:37:40;;;;;;;9.07;6.97;;;;;;;10.83;53.35;99857.22;5016781;28;21020;-72
2021/09/24 01:40:11;;;;;;;8.40;7.00;;;;;;;10.76;54.20;99852.09;5012006;28;20112;-72
2021/09/24 01:42:37;;;;;;;8.90;7.82;;;;;;;10.70;54.18;99850.59;5010432;28;20042;-72
2021/09/24 01:45:03;;;;;;;11.32;7.63;;;;;;;10.74;53.80;99854.41;5011352;28;20507;-72
2021/09/24 01:47:29;;;;;;;8.57;7.32;;;;;;;10.63;54.53;99842.69;5007308;28;20521;-72
2021/09/24 01:49:54;;;;;;;9.30;7.38;;;;;;;10.56;54.49;99839.56;5000705;28;20080;-72
2021/09/24 01:52:20;;;;;;;9.25;6.65;;;;;;;10.61;54.60;99841.34;5007345;28;20444;-72
2021/09/24 01:54:45;;;;;;;10.18;7.60;;;;;;;10.61;55.21;99835.75;5011837;28;20034;-72
2021/09/24 01:57:11;;;;;;;10.00;7.00;;;;;;;10.60;55.76;99831.31;5009735;28;20022;-72
2021/09/24 01:59:38;;;;;;;11.43;6.60;;;;;;;10.64;55.32;99841.53;4998726;28;20485;-72
2021/09/24 02:02:03;;;;;;;10.63;7.47;;;;;;;10.56;55.39;99831.16;5010974;28;20084;-72
2021/09/24 02:04:29;;;;;;;12.63;8.07;;;;;;;10.52;55.71;99828.19;5011474;28;20089;-72
2021/09/24 02:06:54;;;;;;;8.45;6.70;;;;;;;10.62;55.72;99831.84;5011047;28;20463;-72
2021/09/24 02:09:20;;;;;;;12.00;7.00;;;;;;;10.81;55.21;99832.34;5009275;28;20101;-72
2021/09/24 02:11:45;;;;;;;9.88;6.63;;;;;;;10.98;54.58;99833.53;5010963;28;20022;-72
2021/09/24 02:14:11;;;;;;;8.73;6.53;;;;;;;10.87;55.70;99832.19;5013301;28;20034;-72
2021/09/24 02:16:36;;;;;;;8.18;6.40;;;;;;;10.96;54.04;99830.19;5003755;28;20480;-72
2021/09/24 02:19:02;;;;;;;10.57;7.30;;;;;;;11.09;53.74;99826.41;5012340;28;20022;-72
2021/09/24 02:21:27;;;;;;;10.60;7.25;;;;;;;10.94;53.72;99827.75;5014510;28;20017;-72
2021/09/24 02:23:53;;;;;;;9.93;6.60;;;;;;;10.75;55.18;99822.47;5014498;28;20080;-72
2021/09/24 02:26:18;;;;;;;8.05;6.72;;;;;;;10.79;54.97;99825.41;5014540;28;20025;-72
2021/09/24 02:28:44;;;;;;;14.43;7.55;;;;;;;10.87;54.27;99827.41;5014460;28;20022;-72
2021/09/24 02:31:11;;;;;;;14.77;8.32;;;;;;;10.58;55.02;99830.81;5014556;28;20036;-72
2021/09/24 02:33:37;;;;;;;9.70;6.90;;;;;;;10.49;56.03;99833.63;5013485;28;20037;-72
2021/09/24 02:36:08;;;;;;;11.63;7.32;;;;;;;10.39;56.19;99837.50;5011964;28;20034;-72
2021/09/24 02:38:33;;;;;;;13.35;7.85;;;;;;;10.61;54.75;99827.38;5015386;28;20021;-72
2021/09/24 02:41:00;;;;;;;9.25;7.15;;;;;;;10.56;55.58;99827.53;5020645;28;20455;-72
2021/09/24 02:43:26;;;;;;;12.15;7.82;;;;;;;10.34;55.58;99824.50;5013869;28;20042;-72
2021/09/24 02:45:52;;;;;;;11.90;7.47;;;;;;;10.38;55.20;99825.50;5013908;28;20026;-72
2021/09/24 02:48:17;;;;;;;10.93;8.43;;;;;;;10.23;55.67;99826.75;5003602;28;20027;-72
2021/09/24 02:50:43;;;;;;;14.13;7.60;;;;;;;10.08;55.62;99822.44;5012682;28;20026;-72
2021/09/24 02:53:09;;;;;;;12.60;8.57;;;;;;;10.16;55.60;99831.19;5017680;28;20018;-72
2021/09/24 02:55:34;;;;;;;9.65;6.97;;;;;;;10.10;55.95;99833.28;5013819;28;20428;-72
2021/09/24 02:58:00;;;;;;;12.10;6.72;;;;;;;10.14;55.40;99825.94;5012130;28;20030;-72
2021/09/24 03:00:26;;;;;;;14.98;7.75;;;;;;;10.27;55.04;99820.53;5013146;28;20519;-72
2021/09/24 03:02:52;;;;;;;10.75;7.00;;;;;;;10.18;55.02;99817.69;5022620;28;20033;-72
2021/09/24 03:05:17;;;;;;;9.85;6.80;;;;;;;10.27;54.50;99809.34;5021721;28;20030;-72
2021/09/24 03:07:43;;;;;;;11.27;7.32;;;;;;;10.14;55.21;99819.50;5013698;28;20030;-72
2021/09/24 03:10:09;;;;;;;9.77;7.13;;;;;;;9.92;55.74;99813.66;5011884;28;20129;-72
2021/09/24 03:12:35;;;;;;;11.45;7.00;;;;;;;9.85;55.40;99807.72;5013019;28;20017;-72
2021/09/24 03:15:01;;;;;;;8.18;6.72;;;;;;;9.88;55.82;99809.84;5030335;28;20093;-72
2021/09/24 03:17:27;;;;;;;12.57;7.60;;;;;;;9.96;55.99;99800.69;5008351;28;20121;-72
2021/09/24 03:19:52;;;;;;;9.35;7.03;;;;;;;9.77;56.46;99805.69;5011262;28;20479;-72
2021/09/24 03:22:17;;;;;;;9.63;7.47;;;;;;;9.78;57.07;99799.00;5013334;28;20021;-72
2021/09/24 03:24:43;;;;;;;10.25;6.88;;;;;;;9.85;56.57;99804.91;5013846;28;20045;-72
2021/09/24 03:27:08;;;;;;;10.98;7.38;;;;;;;10.00;55.77;99802.84;5014414;28;20026;-72
2021/09/24 03:29:34;;;;;;;13.95;7.68;;;;;;;9.96;56.39;99806.28;5013429;28;20025;-72
2021/09/24 03:32:00;;;;;;;14.23;7.30;;;;;;;9.89;56.06;99803.13;5014011;28;20041;-72
2021/09/24 03:34:25;;;;;;;10.52;8.18;;;;;;;9.81;56.78;99798.34;5008592;28;20022;-72
2021/09/24 03:36:51;;;;;;;11.18;7.90;;;;;;;9.76;56.65;99798.47;5011757;28;20021;-72
2021/09/24 03:39:16;;;;;;;12.38;7.32;;;;;;;9.73;57.08;99813.09;5013052;28;20423;-72
2021/09/24 03:41:44;;;;;;;16.88;7.32;;;;;;;9.79;57.33;99800.63;5018194;28;20179;-72
2021/09/24 03:44:10;;;;;;;11.45;7.35;;;;;;;9.71;56.97;99807.81;5007003;28;20076;-72
2021/09/24 03:46:36;;;;;;;13.85;7.65;;;;;;;9.97;56.58;99793.94;5011751;28;20026;-72
2021/09/24 03:49:03;;;;;;;9.80;7.13;;;;;;;9.58;56.52;99803.97;4999622;28;20025;-72
2021/09/24 03:51:28;;;;;;;15.32;7.95;;;;;;;9.57;57.60;99804.28;5012841;28;20026;-72
2021/09/24 03:53:54;;;;;;;13.65;7.75;;;;;;;9.58;56.79;99808.72;5012792;28;20036;-72
2021/09/24 03:56:19;;;;;;;12.73;7.07;;;;;;;9.54;56.52;99806.56;5011852;28;20100;-72
2021/09/24 03:58:45;;;;;;;13.88;8.85;;;;;;;9.36;57.53;99802.06;5017124;28;20022;-72
2021/09/24 04:01:10;;;;;;;22.25;9.18;;;;;;;9.45;57.62;99807.69;5009859;28;20030;-72
2021/09/24 04:03:37;;;;;;;30.50;9.95;;;;;;;9.52;57.31;99805.25;5018546;28;20495;-72
2021/09/24 04:06:02;;;;;;;37.75;10.25;;;;;;;9.42;58.02;99800.75;5012700;28;20033;-72
2021/09/24 04:08:28;;;;;;;33.08;10.15;;;;;;;9.31;57.81;99802.16;5012789;28;20028;-72
2021/09/24 04:10:53;;;;;;;30.70;9.70;;;;;;;9.25;58.76;99795.88;5011071;28;20018;-72
2021/09/24 04:13:20;;;;;;;33.58;9.60;;;;;;;9.16;58.25;99795.84;5011866;28;20014;-72
2021/09/24 04:15:45;;;;;;;21.00;8.85;;;;;;;9.04;58.47;99804.75;5014670;28;20108;-72
2021/09/24 04:18:11;;;;;;;34.30;8.90;;;;;;;9.26;57.79;99800.31;5008192;28;20116;-72
2021/09/24 04:20:36;;;;;;;26.15;8.32;;;;;;;9.31;58.07;99797.41;5009473;28;20388;-72
2021/09/24 04:23:03;;;;;;;18.90;9.43;;;;;;;9.21;58.96;99806.06;5004507;28;20041;-72
2021/09/24 04:25:29;;;;;;;19.67;8.63;;;;;;;9.22;58.15;99802.91;5007128;28;20026;-72
2021/09/24 04:27:55;;;;;;;32.15;15.52;;;;;;;9.26;58.33;99809.53;5011323;28;20041;-72
2021/09/24 04:30:20;;;;;;;28.25;14.70;;;;;;;9.16;58.67;99808.94;5009828;28;20034;-72
2021/09/24 04:32:47;;;;;;;19.77;13.45;;;;;;;9.20;59.16;99813.59;5007824;28;20034;-72
2021/09/24 04:35:13;;;;;;;27.80;13.68;;;;;;;9.20;59.76;99819.16;5002871;28;20084;-72
2021/09/24 04:37:39;;;;;;;20.63;11.57;;;;;;;9.30;59.16;99808.88;5010029;28;20546;-72
2021/09/24 04:40:05;;;;;;;20.20;12.63;;;;;;;9.31;58.45;99814.16;5012034;28;20026;-72
2021/09/24 04:42:30;;;;;;;24.63;11.93;;;;;;;9.45;58.43;99813.25;5011114;28;20511;-72
2021/09/24 04:44:56;;;;;;;23.95;12.30;;;;;;;9.83;57.10;99798.84;5014231;28;20038;-73
2021/09/24 04:47:21;;;;;;;27.40;10.93;;;;;;;10.14;55.91;99800.78;5007683;28;20037;-72
2021/09/24 04:49:47;;;;;;;29.23;10.75;;;;;;;9.98;56.11;99798.41;5020801;28;20048;-72
2021/09/24 04:52:12;;;;;;;47.22;9.55;;;;;;;10.16;56.16;99792.03;5017368;28;20069;-72
2021/09/24 04:54:41;;;;;;;17.58;9.02;;;;;;;9.98;55.81;99803.97;5018924;28;20041;-72
2021/09/24 04:57:06;;;;;;;17.42;8.60;;;;;;;10.04;55.76;99807.47;5011510;28;20044;-71
2021/09/24 04:59:32;;;;;;;35.65;8.77;;;;;;;9.97;56.18;99801.53;5010346;28;20116;-72
2021/09/24 05:01:57;;;;;;;25.13;8.93;;;;;;;10.04;56.27;99799.06;5009725;28;20372;-72
2021/09/24 05:04:23;;;;;;;31.60;9.75;;;;;;;10.21;55.80;99803.91;5012544;28;20034;-72
2021/09/24 05:06:48;;;;;;;27.88;9.52;;;;;;;9.83;56.75;99798.84;5012662;28;20029;-72
2021/09/24 05:09:14;;;;;;;36.58;8.98;;;;;;;9.91;56.85;99798.06;5012421;28;20068;-72
2021/09/24 05:11:39;;;;;;;34.80;11.07;;;;;;;9.96;56.47;99800.69;5010018;28;20084;-71
2021/09/24 05:14:05;;;;;;;25.40;9.65;;;;;;;10.28;55.82;99800.63;5006745;28;20438;-71
2021/09/24 05:16:30;;;;;;;26.83;10.00;;;;;;;10.34;55.84;99799.34;5004992;28;20029;-72
2021/09/24 05:18:56;;;;;;;32.47;9.90;;;;;;;10.27;56.20;99795.38;5004452;28;20038;-71
2021/09/24 05:21:21;;;;;;;23.42;10.35;;;;;;;10.42;56.05;99808.94;5001465;28;20014;-71
2021/09/24 05:23:47;;;;;;;25.88;9.10;;;;;;;10.61;55.82;99802.19;5010118;28;20443;-71
2021/09/24 05:26:13;;;;;;;37.05;10.85;;;;;;;10.70;56.31;99811.41;5009439;28;20487;-71
2021/09/24 05:28:38;;;;;;;18.20;9.68;;;;;;;10.81;55.80;99803.56;5012607;28;20036;-71
2021/09/24 05:31:04;;;;;;;16.38;8.15;;;;;;;10.82;55.96;99808.81;5007010;28;20585;-71
2021/09/24 05:33:29;;;;;;;17.58;10.43;;;;;;;10.96;55.82;99796.63;5016836;28;20018;-71
2021/09/24 05:35:55;;;;;;;25.17;8.85;;;;;;;11.16;55.35;99794.31;5014415;28;20022;-70
2021/09/24 05:38:21;;;;;;;15.50;9.95;;;;;;;11.27;54.76;99795.63;4998474;28;20025;-71
2021/09/24 05:40:46;;;;;;;16.40;8.43;;;;;;;11.31;54.32;99790.97;5008959;28;20052;-71
2021/09/24 05:43:12;;;;;;;14.32;8.45;;;;;;;11.42;53.90;99793.44;5009538;28;20037;-71
2021/09/24 05:45:37;;;;;;;12.18;8.02;;;;;;;11.48;53.83;99790.13;5013535;28;20036;-71
2021/09/24 05:48:03;;;;;;;24.45;8.73;;;;;;;11.60;53.72;99786.66;5005023;28;20603;-71
2021/09/24 05:50:29;;;;;;;12.90;8.32;;;;;;;11.76;53.23;99788.91;5008359;28;20026;-71
2021/09/24 05:52:54;;;;;;;11.13;7.82;;;;;;;11.91;52.89;99802.34;5006918;28;20432;-71
2021/09/24 05:55:22;;;;;;;14.45;8.88;;;;;;;12.07;52.26;99787.81;5008906;28;20124;-71
2021/09/24 05:57:50;;;;;;;12.60;8.15;;;;;;;12.21;51.76;99788.41;5001806;28;20025;-71
2021/09/24 06:00:19;;;;;;;10.25;7.40;;;;;;;12.26;52.10;99787.38;5011122;28;20052;-71
2021/09/24 06:02:46;;;;;;;12.82;7.30;;;;;;;12.39;52.50;99781.88;5012052;28;20068;-71
2021/09/24 06:05:12;;;;;;;14.05;8.00;;;;;;;12.54;51.51;99778.44;5014039;28;20088;-71
2021/09/24 06:07:38;;;;;;;13.25;7.75;;;;;;;12.62;50.99;99773.94;5012140;28;20114;-71
2021/09/24 06:10:05;;;;;;;10.98;8.57;;;;;;;12.75;50.50;99770.03;5011112;28;20462;-71
2021/09/24 06:12:31;;;;;;;13.38;8.75;;;;;;;12.83;50.81;99776.72;5008045;28;20022;-71
2021/09/24 06:14:57;;;;;;;13.80;7.93;;;;;;;12.92;50.74;99774.69;5001254;28;20080;-71
2021/09/24 06:17:23;;;;;;;13.70;7.82;;;;;;;13.00;50.81;99769.34;5007966;28;20105;-71
2021/09/24 06:19:49;;;;;;;11.60;8.05;;;;;;;13.09;50.72;99763.63;5008842;28;20034;-71
2021/09/24 06:22:15;;;;;;;20.45;10.45;;;;;;;13.21;49.75;99763.69;5010490;28;20018;-71
2021/09/24 06:24:44;;;;;;;16.65;9.15;;;;;;;13.29;48.62;99759.13;5010439;28;20032;-71
2021/09/24 06:27:14;;;;;;;16.23;8.88;;;;;;;13.43;48.56;99756.03;5011743;28;20014;-71
2021/09/24 06:29:44;;;;;;;18.08;8.02;;;;;;;13.52;48.27;99751.16;5009169;28;20716;-71
2021/09/24 06:32:11;;;;;;;13.88;7.38;;;;;;;13.61;47.40;99749.06;5013786;28;20136;-71
2021/09/24 06:34:37;;;;;;;10.35;6.07;;;;;;;13.73;46.22;99748.28;5010621;28;20029;-71
2021/09/24 06:37:03;;;;;;;13.13;6.68;;;;;;;13.81;45.45;99738.06;5010810;28;20057;-71
2021/09/24 06:39:29;;;;;;;11.68;6.28;;;;;;;13.92;45.96;99729.97;5001791;28;20497;-71
2021/09/24 06:41:54;;;;;;;16.30;6.60;;;;;;;13.96;45.40;99721.66;5010870;28;20037;-71
2021/09/24 06:44:20;;;;;;;11.65;7.70;;;;;;;14.07;44.81;99731.28;5006952;28;20040;-71
2021/09/24 06:46:45;;;;;;;15.75;6.32;;;;;;;14.18;44.32;99714.75;5007745;28;20492;-70
2021/09/24 06:49:12;;;;;;;9.20;5.82;;;;;;;14.23;44.57;99708.03;5006216;28;20107;-70
2021/09/24 06:51:38;;;;;;;11.98;6.45;;;;;;;14.29;43.09;99706.66;5003878;28;20022;-70
2021/09/24 06:54:04;;;;;;;22.08;6.75;;;;;;;14.28;43.62;99705.00;5011224;28;20079;-70
2021/09/24 06:56:29;;;;;;;18.25;6.95;;;;;;;14.44;43.25;99710.72;5010447;28;20125;-71
2021/09/24 06:58:55;;;;;;;17.45;6.40;;;;;;;14.38;42.79;99704.53;5010216;28;20112;-73
2021/09/24 07:01:21;;;;;;;19.30;6.15;;;;;;;14.33;43.17;99701.94;5012115;28;20092;-70
2021/09/24 07:03:47;;;;;;;8.93;5.30;;;;;;;14.52;42.36;99712.56;5010060;28;20076;-70
2021/09/24 07:06:14;;;;;;;7.93;6.60;;;;;;;14.51;43.07;99710.91;5008839;28;20028;-72
2021/09/24 07:08:40;;;;;;;30.98;7.57;;;;;;;14.48;42.89;99710.81;4997034;28;20173;-72
2021/09/24 07:11:05;;;;;;;11.23;5.97;;;;;;;14.53;43.12;99719.03;5010951;28;20101;-72
2021/09/24 07:13:31;;;;;;;13.20;6.80;;;;;;;14.49;42.90;99723.72;5000227;28;20454;-74
2021/09/24 07:15:56;;;;;;;8.63;6.05;;;;;;;14.50;42.22;99719.75;5004218;28;20018;-71
2021/09/24 07:18:22;;;;;;;10.60;5.82;;;;;;;14.43;43.35;99718.34;4999593;28;20132;-71
2021/09/24 07:20:47;;;;;;;13.98;5.68;;;;;;;14.48;42.49;99713.63;5006521;28;20076;-70
2021/09/24 07:23:13;;;;;;;8.70;5.35;;;;;;;14.65;42.11;99706.88;5010439;28;20038;-70
2021/09/24 07:25:38;;;;;;;8.77;5.38;;;;;;;14.86;42.16;99712.38;5007663;28;20033;-70
2021/09/24 07:28:04;;;;;;;7.45;5.50;;;;;;;15.04;41.18;99706.41;5017529;28;20504;-70
2021/09/24 07:30:29;;;;;;;8.38;5.35;;;;;;;15.15;41.29;99696.25;5011402;28;20026;-70
2021/09/24 07:32:55;;;;;;;12.25;6.60;;;;;;;15.35;40.80;99690.75;5012146;28;20092;-70
2021/09/24 07:35:20;;;;;;;23.83;5.97;;;;;;;15.30;40.85;99677.75;5003845;28;20060;-70
2021/09/24 07:37:45;;;;;;;9.27;5.10;;;;;;;15.36;40.59;99686.75;5002551;28;20518;-70
2021/09/24 07:40:14;;;;;;;7.20;5.55;;;;;;;15.47;40.16;99687.03;5012104;28;20424;-70
2021/09/24 07:42:39;;;;;;;5.88;5.18;;;;;;;15.48;40.14;99683.84;5011472;28;20045;-70
2021/09/24 07:45:06;;;;;;;7.53;5.65;;;;;;;15.61;40.34;99689.41;5008093;28;20042;-70
2021/09/24 07:47:32;;;;;;;6.00;5.35;;;;;;;15.55;39.41;99681.19;5004359;28;20033;-70
2021/09/24 07:49:58;;;;;;;6.30;4.90;;;;;;;15.68;39.35;99683.94;5011938;28;20029;-70
2021/09/24 07:52:24;;;;;;;8.07;5.93;;;;;;;15.75;39.75;99683.28;5011765;28;20447;-70
2021/09/24 07:54:49;;;;;;;9.07;6.63;;;;;;;15.79;40.93;99685.00;5007398;28;20042;-70
2021/09/24 07:57:15;;;;;;;8.20;4.82;;;;;;;15.98;37.88;99680.66;5007173;28;20108;-69
2021/09/24 07:59:42;;;;;;;8.27;5.55;;;;;;;16.10;37.86;99682.53;5001777;28;20041;-70
2021/09/24 08:02:08;;;;;;;6.43;4.53;;;;;;;16.36;38.15;99673.47;5010631;28;20018;-69
2021/09/24 08:04:34;;;;;;;11.30;5.40;;;;;;;16.60;38.23;99665.09;5009057;28;20021;-70
2021/09/24 08:07:01;;;;;;;7.53;5.20;;;;;;;16.73;39.08;99666.56;5004991;28;20032;-72
2021/09/24 08:09:26;;;;;;;9.25;4.93;;;;;;;16.93;36.66;99661.72;5011158;28;20040;-70
2021/09/24 08:11:52;;;;;;;4.88;4.35;;;;;;;17.15;35.24;99650.84;5010872;28;20144;-70
2021/09/24 08:14:17;;;;;;;6.13;4.35;;;;;;;17.47;33.60;99658.28;5010851;28;20044;-70
2021/09/24 08:16:43;;;;;;;7.80;3.92;;;;;;;17.64;33.18;99662.59;5010739;28;20450;-70
2021/09/24 08:19:08;;;;;;;11.80;4.88;;;;;;;17.62;32.56;99660.13;5000826;28;20026;-71
2021/09/24 08:21:34;;;;;;;5.90;4.70;;;;;;;17.72;33.16;99669.97;5015082;28;20428;-70
2021/09/24 08:23:59;;;;;;;9.65;4.93;;;;;;;17.80;32.51;99670.94;5003022;28;20071;-71
2021/09/24 08:26:25;;;;;;;9.52;4.78;;;;;;;17.76;32.65;99670.88;5011560;28;20619;-71
2021/09/24 08:28:52;;;;;;;9.93;4.70;;;;;;;17.79;32.24;99664.44;5009732;28;20108;-70
2021/09/24 08:31:18;;;;;;;15.20;4.82;;;;;;;17.82;33.31;99654.41;5011419;28;20471;-71
2021/09/24 08:33:46;;;;;;;13.40;5.95;;;;;;;18.03;32.57;99653.94;5010395;28;21506;-71
2021/09/24 08:36:12;;;;;;;7.97;4.32;;;;;;;18.10;32.52;99658.88;5018030;28;20032;-70
2021/09/24 08:38:37;;;;;;;5.43;4.50;;;;;;;18.11;32.92;99652.03;5007766;28;20021;-70
2021/09/24 08:41:03;;;;;;;6.13;4.70;;;;;;;18.31;32.74;99644.22;5011015;28;20480;-70
2021/09/24 08:43:29;;;;;;;6.30;4.63;;;;;;;18.25;32.51;99637.25;4996903;28;20113;-70
2021/09/24 08:45:55;;;;;;;28.02;6.60;;;;;;;18.41;32.15;99641.91;4999681;28;20041;-70
2021/09/24 08:48:21;;;;;;;21.08;6.47;;;;;;;18.48;31.64;99630.69;5010311;28;20053;-70
2021/09/24 08:50:50;;;;;;;6.78;4.03;;;;;;;18.51;31.85;99636.38;4999484;28;20021;-72
2021/09/24 08:53:19;;;;;;;14.73;5.13;;;;;;;18.66;32.25;99625.25;5010127;28;20029;-71
2021/09/24 08:55:45;;;;;;;9.93;4.72;;;;;;;18.76;31.05;99616.06;5001670;28;20057;-71
2021/09/24 08:58:12;;;;;;;6.05;4.50;;;;;;;18.89;31.07;99604.44;5010110;28;20030;-71
2021/09/24 09:00:42;;;;;;;5.78;4.22;;;;;;;18.86;30.79;99605.19;5008792;28;20029;-71
2021/09/24 09:03:10;;;;;;;5.45;4.47;;;;;;;19.13;30.11;99611.59;5004564;28;20389;-71
2021/09/24 09:05:43;;;;;;;5.93;4.35;;;;;;;19.07;29.11;99616.78;5002518;28;20022;-71
2021/09/24 09:08:16;;;;;;;7.13;4.57;;;;;;;19.08;29.59;99614.78;5009463;28;20033;-71
2021/09/24 09:10:45;;;;;;;10.93;4.45;;;;;;;19.24;30.10;99619.38;5009180;28;20499;-71
2021/09/24 09:13:13;;;;;;;6.10;3.63;;;;;;;19.22;28.73;99625.44;5009930;28;20021;-70
2021/09/24 09:15:40;;;;;;;4.50;3.20;;;;;;;19.08;27.85;99620.47;4996445;28;20030;-71
2021/09/24 09:18:06;;;;;;;13.02;5.20;;;;;;;19.22;28.83;99616.94;4995270;28;20516;-70
2021/09/24 09:20:32;;;;;;;13.80;3.97;;;;;;;19.29;27.97;99607.66;5002541;28;20030;-70
2021/09/24 09:22:58;;;;;;;3.50;3.20;;;;;;;19.49;26.49;99606.22;4995634;28;20022;-71
2021/09/24 09:25:28;;;;;;;5.65;3.13;;;;;;;19.52;26.51;99603.81;4991998;28;20105;-71
2021/09/24 09:27:57;;;;;;;4.22;3.20;;;;;;;19.45;26.83;99598.91;4994556;28;20860;-70
2021/09/24 09:30:23;;;;;;;3.72;3.42;;;;;;;19.43;27.33;99601.31;4991733;28;20110;-71
2021/09/24 09:33:17;;;;;;;6.38;3.55;;;;;;;19.63;27.36;99599.88;4998420;28;20054;-70
2021/09/24 09:35:59;;;;;;;3.63;3.33;;;;;;;19.93;27.30;99586.72;4998427;28;20868;-72
2021/09/24 09:38:38;;;;;;;3.85;3.28;;;;;;;20.34;26.54;99580.81;5004928;28;20037;-71
2021/09/24 09:41:10;;;;;;;7.10;3.35;;;;;;;20.64;26.55;99569.56;5001130;28;20026;-71
2021/09/24 09:43:43;;;;;;;7.60;3.25;;;;;;;20.90;25.81;99566.41;5003368;28;20506;-71
2021/09/24 09:46:15;;;;;;;6.75;3.45;;;;;;;20.91;26.15;99570.03;4999435;28;20049;-72
2021/09/24 09:49:02;;;;;;;10.05;3.63;;;;;;;20.99;25.40;99568.03;4995843;28;20034;-72
2021/09/24 09:51:28;;;;;;;11.70;3.45;;;;;;;21.29;24.39;99569.69;5005207;28;20034;-72
2021/09/24 09:53:58;;;;;;;5.15;3.55;;;;;;;21.43;24.40;99578.22;5001573;28;20029;-72
2021/09/24 09:56:46;;;;;;;9.35;3.88;;;;;;;21.59;23.85;99563.56;5004379;28;20042;-72
2021/09/24 09:59:41;;;;;;;4.88;3.47;;;;;;;21.49;24.33;99557.91;4996660;28;20046;-72
2021/09/24 10:02:11;;;;;;;9.15;3.53;;;;;;;21.53;25.28;99550.16;5001566;28;20038;-72
2021/09/24 10:04:40;;;;;;;6.13;3.60;;;;;;;21.88;24.52;99551.34;5010805;28;20053;-72
2021/09/24 10:07:21;;;;;;;3.40;3.10;;;;;;;21.81;23.93;99546.47;5003996;28;20038;-72
2021/09/24 10:09:49;;;;;;;4.60;3.10;;;;;;;21.86;23.86;99539.56;5003544;28;20029;-72
2021/09/24 10:12:21;;;;;;;5.55;4.22;;;;;;;22.23;22.84;99526.81;5002105;28;20515;-73
2021/09/24 10:14:51;;;;;;;4.40;3.67;;;;;;;22.19;23.27;99520.31;5001977;28;20053;-72
2021/09/24 10:17:20;;;;;;;7.53;3.97;;;;;;;22.38;23.33;99513.28;5002203;28;20034;-72
2021/09/24 10:19:47;;;;;;;14.52;3.50;;;;;;;22.36;24.05;99512.91;5026403;28;20029;-73
2021/09/24 10:22:12;;;;;;;3.92;3.53;;;;;;;22.36;23.46;99509.25;5002985;28;20022;-73
2021/09/24 10:24:39;;;;;;;7.57;3.35;;;;;;;22.43;24.65;99509.19;5001626;28;20034;-74
2021/09/24 10:27:07;;;;;;;15.85;5.80;;;;;;;22.27;24.59;99492.63;4998432;28;20038;-72
2021/09/24 10:29:41;;;;;;;6.13;3.45;;;;;;;22.51;23.45;99498.63;5003176;28;20058;-72
2021/09/24 10:32:18;;;;;;;6.85;3.53;;;;;;;22.70;22.46;99500.13;5007336;28;20101;-72
2021/09/24 10:35:01;;;;;;;4.00;2.75;;;;;;;22.88;23.72;99497.16;5013934;28;20513;-72
2021/09/24 10:37:29;;;;;;;4.57;3.15;;;;;;;22.94;21.96;99486.09;5000165;28;20033;-72
2021/09/24 10:40:00;;;;;;;6.75;3.28;;;;;;;22.92;22.79;99483.66;5004195;28;20052;-73
2021/09/24 10:42:25;;;;;;;9.27;2.75;;;;;;;23.22;22.03;99479.31;5005875;28;20065;-73
2021/09/24 10:45:08;;;;;;;6.82;2.90;;;;;;;23.37;22.65;99479.22;5011253;28;20215;-73
2021/09/24 10:47:55;;;;;;;5.90;3.08;;;;;;;23.39;22.57;99479.59;5004765;28;20038;-73
2021/09/24 10:50:32;;;;;;;7.13;3.92;;;;;;;23.49;22.08;99466.44;5014286;28;20396;-73
2021/09/24 10:55:42;;;;;;;4.13;3.00;;;;;;;23.48;22.06;99462.81;5014251;28;20052;-73
2021/09/24 10:58:32;;;;;;;5.22;3.97;;;;;;;23.50;21.23;99453.81;5005458;28;20061;-73
2021/09/24 11:01:04;;;;;;;6.10;3.33;;;;;;;23.46;21.65;99450.19;5012188;28;20619;-73
2021/09/24 11:03:30;;;;;;;4.47;3.55;;;;;;;23.66;22.22;99436.91;5007701;28;20172;-73
2021/09/24 11:06:10;;;;;;;4.78;2.70;;;;;;;23.72;21.95;99445.00;5012761;28;20531;-73
2021/09/24 11:08:40;;;;;;;5.00;3.00;;;;;;;24.04;20.90;99438.91;5008289;28;20017;-73
2021/09/24 11:11:23;;;;;;;8.60;3.05;;;;;;;23.79;21.28;99431.44;5007546;28;20036;-73
2021/09/24 11:13:54;;;;;;;8.45;5.88;;;;;;;23.80;21.80;99421.63;5010919;28;20032;-73
2021/09/24 11:16:27;;;;;;;21.77;13.88;;;;;;;23.97;21.62;99408.34;5016206;28;20026;-73
2021/09/24 11:19:01;;;;;;;10.18;4.68;;;;;;;24.17;20.82;99409.75;5021605;28;20022;-73
2021/09/24 11:21:32;;;;;;;7.43;3.25;;;;;;;24.10;21.31;99402.09;5014137;28;20500;-73
2021/09/24 11:24:00;;;;;;;20.80;12.55;;;;;;;23.94;22.10;99399.84;5005669;28;20507;-73
2021/09/24 11:26:33;;;;;;;8.77;3.95;;;;;;;24.09;21.39;99389.06;5009588;28;20026;-73
2021/09/24 11:29:08;;;;;;;9.93;3.10;;;;;;;24.11;21.32;99384.53;5013744;28;20060;-73
2021/09/24 11:31:52;;;;;;;8.40;3.50;;;;;;;24.10;21.72;99376.38;5015433;28;20026;-73